Walum, North Dakota
Current Conditions -  °F | °C
As of 6:35 AM on Sunday 23 Nov 2014 (Local Time) from KBAC Reporting Station
Overcast Overcast  
Wind Chill: 32°   Ceiling: 7000
Heat Index: 39°   Visibility: 10mi
Dew Point: 37°   Wind: 12mph
Humidity: 93%   Direction: 290°WNW
Pressure: 29.4"   Gusts: NA
Location:  47.2843°N, 98.1073°W
Report Text: KBAC 231235Z AUTO 29010KT 10SM SCT046 OVC070 04/03 A2940 RMK AO2
Loading
Personal Weather Stations






























Interactive Weather Map New forecast layout! Learn more

10-Day Weather Forecast

Advertisements
Track Severe Weather on mobile